sensor_id;sensor_type;location;lat;lon;timestamp;P1;durP1;ratioP1;P2;durP2;ratioP2
11228;SDS011;5671;47.936;8.716;2022-08-04T00:01:30;2.87;;;2.40;;
11228;SDS011;5671;47.936;8.716;2022-08-04T00:04:03;2.00;;;1.90;;
11228;SDS011;5671;47.936;8.716;2022-08-04T00:06:45;3.03;;;2.07;;
11228;SDS011;5671;47.936;8.716;2022-08-04T00:09:21;2.13;;;1.90;;
11228;SDS011;5671;47.936;8.716;2022-08-04T00:11:55;3.20;;;2.07;;
11228;SDS011;5671;47.936;8.716;2022-08-04T00:14:27;2.03;;;1.90;;
11228;SDS011;5671;47.936;8.716;2022-08-04T00:16:58;2.20;;;2.00;;
11228;SDS011;5671;47.936;8.716;2022-08-04T00:19:29;2.50;;;2.30;;
11228;SDS011;5671;47.936;8.716;2022-08-04T00:22:02;3.67;;;1.90;;
11228;SDS011;5671;47.936;8.716;2022-08-04T00:24:30;6.20;;;2.10;;
11228;SDS011;5671;47.936;8.716;2022-08-04T00:26:57;4.23;;;2.37;;
11228;SDS011;5671;47.936;8.716;2022-08-04T00:29:26;2.23;;;2.00;;
11228;SDS011;5671;47.936;8.716;2022-08-04T00:31:55;2.90;;;2.20;;
11228;SDS011;5671;47.936;8.716;2022-08-04T00:34:22;3.20;;;2.00;;
11228;SDS011;5671;47.936;8.716;2022-08-04T00:36:52;3.37;;;2.63;;
11228;SDS011;5671;47.936;8.716;2022-08-04T00:39:20;2.37;;;2.17;;
11228;SDS011;5671;47.936;8.716;2022-08-04T00:41:51;2.30;;;2.10;;
11228;SDS011;5671;47.936;8.716;2022-08-04T00:44:29;3.33;;;2.30;;
11228;SDS011;5671;47.936;8.716;2022-08-04T00:47:06;2.13;;;1.93;;
11228;SDS011;5671;47.936;8.716;2022-08-04T00:49:55;2.80;;;2.30;;
11228;SDS011;5671;47.936;8.716;2022-08-04T00:52:40;2.10;;;2.00;;
11228;SDS011;5671;47.936;8.716;2022-08-04T00:55:26;1.90;;;1.80;;
11228;SDS011;5671;47.936;8.716;2022-08-04T00:58:10;2.27;;;2.07;;
11228;SDS011;5671;47.936;8.716;2022-08-04T01:00:59;2.43;;;2.23;;
11228;SDS011;5671;47.936;8.716;2022-08-04T01:06:17;2.47;;;2.27;;
11228;SDS011;5671;47.936;8.716;2022-08-04T01:09:01;2.20;;;2.00;;
11228;SDS011;5671;47.936;8.716;2022-08-04T01:11:41;4.23;;;2.30;;
11228;SDS011;5671;47.936;8.716;2022-08-04T01:14:19;2.57;;;2.37;;
11228;SDS011;5671;47.936;8.716;2022-08-04T01:16:56;3.43;;;2.10;;
11228;SDS011;5671;47.936;8.716;2022-08-04T01:22:42;2.17;;;2.07;;
11228;SDS011;5671;47.936;8.716;2022-08-04T01:28:42;2.20;;;2.00;;
11228;SDS011;5671;47.936;8.716;2022-08-04T01:31:37;2.57;;;2.20;;
11228;SDS011;5671;47.936;8.716;2022-08-04T01:34:28;2.23;;;2.00;;
11228;SDS011;5671;47.936;8.716;2022-08-04T01:36:57;3.70;;;2.20;;
11228;SDS011;5671;47.936;8.716;2022-08-04T01:39:34;2.33;;;2.13;;
11228;SDS011;5671;47.936;8.716;2022-08-04T01:42:05;2.47;;;2.27;;
11228;SDS011;5671;47.936;8.716;2022-08-04T01:44:36;4.43;;;2.07;;
11228;SDS011;5671;47.936;8.716;2022-08-04T01:47:07;2.50;;;2.30;;
11228;SDS011;5671;47.936;8.716;2022-08-04T01:49:36;2.43;;;2.23;;
11228;SDS011;5671;47.936;8.716;2022-08-04T01:52:04;5.13;;;2.40;;
11228;SDS011;5671;47.936;8.716;2022-08-04T01:54:40;2.63;;;2.00;;
11228;SDS011;5671;47.936;8.716;2022-08-04T01:57:08;5.73;;;2.50;;
11228;SDS011;5671;47.936;8.716;2022-08-04T01:59:37;2.47;;;2.30;;
11228;SDS011;5671;47.936;8.716;2022-08-04T02:02:05;2.20;;;2.10;;
11228;SDS011;5671;47.936;8.716;2022-08-04T02:04:34;2.83;;;2.43;;
11228;SDS011;5671;47.936;8.716;2022-08-04T02:07:05;5.03;;;2.40;;
11228;SDS011;5671;47.936;8.716;2022-08-04T02:09:42;2.63;;;2.30;;
11228;SDS011;5671;47.936;8.716;2022-08-04T02:12:19;2.50;;;2.00;;
11228;SDS011;5671;47.936;8.716;2022-08-04T02:14:58;2.00;;;1.90;;
11228;SDS011;5671;47.936;8.716;2022-08-04T02:17:32;2.37;;;2.10;;
11228;SDS011;5671;47.936;8.716;2022-08-04T02:20:11;2.20;;;2.00;;
11228;SDS011;5671;47.936;8.716;2022-08-04T02:22:45;4.27;;;2.20;;
11228;SDS011;5671;47.936;8.716;2022-08-04T02:25:19;2.50;;;2.30;;
11228;SDS011;5671;47.936;8.716;2022-08-04T02:27:53;2.40;;;2.20;;
11228;SDS011;5671;47.936;8.716;2022-08-04T02:30:30;3.40;;;2.10;;
11228;SDS011;5671;47.936;8.716;2022-08-04T02:33:03;2.63;;;2.40;;
11228;SDS011;5671;47.936;8.716;2022-08-04T02:35:35;2.27;;;2.10;;
11228;SDS011;5671;47.936;8.716;2022-08-04T02:38:10;2.50;;;2.30;;
11228;SDS011;5671;47.936;8.716;2022-08-04T02:40:42;2.50;;;2.30;;
11228;SDS011;5671;47.936;8.716;2022-08-04T02:43:12;3.20;;;2.30;;
11228;SDS011;5671;47.936;8.716;2022-08-04T02:45:45;4.80;;;2.20;;
11228;SDS011;5671;47.936;8.716;2022-08-04T02:48:14;2.30;;;2.10;;
11228;SDS011;5671;47.936;8.716;2022-08-04T02:50:43;5.83;;;2.20;;
11228;SDS011;5671;47.936;8.716;2022-08-04T02:53:12;3.30;;;1.83;;
11228;SDS011;5671;47.936;8.716;2022-08-04T02:55:43;2.83;;;2.40;;
11228;SDS011;5671;47.936;8.716;2022-08-04T02:58:10;3.30;;;2.30;;
11228;SDS011;5671;47.936;8.716;2022-08-04T03:00:40;2.50;;;2.30;;
11228;SDS011;5671;47.936;8.716;2022-08-04T03:03:12;2.30;;;2.10;;
11228;SDS011;5671;47.936;8.716;2022-08-04T03:05:52;2.80;;;2.10;;
11228;SDS011;5671;47.936;8.716;2022-08-04T03:11:45;2.60;;;2.40;;
11228;SDS011;5671;47.936;8.716;2022-08-04T03:17:38;2.57;;;2.20;;
11228;SDS011;5671;47.936;8.716;2022-08-04T03:20:43;5.00;;;2.47;;
11228;SDS011;5671;47.936;8.716;2022-08-04T03:23:38;2.73;;;2.50;;
11228;SDS011;5671;47.936;8.716;2022-08-04T03:32:48;2.70;;;2.20;;
11228;SDS011;5671;47.936;8.716;2022-08-04T03:35:46;2.43;;;2.23;;
11228;SDS011;5671;47.936;8.716;2022-08-04T03:38:35;2.87;;;2.23;;
11228;SDS011;5671;47.936;8.716;2022-08-04T03:41:30;5.00;;;2.67;;
11228;SDS011;5671;47.936;8.716;2022-08-04T03:44:27;3.57;;;2.30;;
11228;SDS011;5671;47.936;8.716;2022-08-04T03:47:27;2.70;;;2.47;;
11228;SDS011;5671;47.936;8.716;2022-08-04T03:50:30;2.67;;;2.47;;
11228;SDS011;5671;47.936;8.716;2022-08-04T03:53:42;3.80;;;2.70;;
11228;SDS011;5671;47.936;8.716;2022-08-04T03:59:27;2.43;;;2.00;;
11228;SDS011;5671;47.936;8.716;2022-08-04T04:02:36;2.60;;;2.13;;
11228;SDS011;5671;47.936;8.716;2022-08-04T04:05:22;2.37;;;2.20;;
11228;SDS011;5671;47.936;8.716;2022-08-04T04:14:19;2.00;;;1.90;;
11228;SDS011;5671;47.936;8.716;2022-08-04T04:17:07;3.53;;;2.17;;
11228;SDS011;5671;47.936;8.716;2022-08-04T04:19:53;5.70;;;2.40;;
11228;SDS011;5671;47.936;8.716;2022-08-04T04:22:37;3.50;;;2.23;;
11228;SDS011;5671;47.936;8.716;2022-08-04T04:25:29;5.40;;;2.20;;
11228;SDS011;5671;47.936;8.716;2022-08-04T04:28:17;2.40;;;2.20;;
11228;SDS011;5671;47.936;8.716;2022-08-04T04:31:01;3.27;;;2.47;;
11228;SDS011;5671;47.936;8.716;2022-08-04T04:33:43;6.57;;;2.10;;
11228;SDS011;5671;47.936;8.716;2022-08-04T04:36:23;5.30;;;2.17;;
11228;SDS011;5671;47.936;8.716;2022-08-04T04:39:02;2.67;;;2.40;;
11228;SDS011;5671;47.936;8.716;2022-08-04T04:41:56;2.23;;;2.03;;
11228;SDS011;5671;47.936;8.716;2022-08-04T04:47:29;4.63;;;2.40;;
11228;SDS011;5671;47.936;8.716;2022-08-04T04:50:13;3.70;;;2.30;;
11228;SDS011;5671;47.936;8.716;2022-08-04T04:52:46;2.10;;;2.00;;
11228;SDS011;5671;47.936;8.716;2022-08-04T04:55:20;2.53;;;2.30;;
11228;SDS011;5671;47.936;8.716;2022-08-04T04:57:52;2.10;;;2.00;;
11228;SDS011;5671;47.936;8.716;2022-08-04T05:00:23;2.27;;;2.10;;
11228;SDS011;5671;47.936;8.716;2022-08-04T05:03:15;2.53;;;2.20;;
11228;SDS011;5671;47.936;8.716;2022-08-04T05:06:06;2.07;;;1.97;;
11228;SDS011;5671;47.936;8.716;2022-08-04T05:08:52;2.37;;;2.17;;
11228;SDS011;5671;47.936;8.716;2022-08-04T05:11:38;2.87;;;2.33;;
11228;SDS011;5671;47.936;8.716;2022-08-04T05:14:25;2.63;;;2.30;;
11228;SDS011;5671;47.936;8.716;2022-08-04T05:16:58;3.37;;;2.57;;
11228;SDS011;5671;47.936;8.716;2022-08-04T05:19:32;5.10;;;2.70;;
11228;SDS011;5671;47.936;8.716;2022-08-04T05:22:09;2.43;;;2.23;;
11228;SDS011;5671;47.936;8.716;2022-08-04T05:24:39;3.90;;;2.40;;
11228;SDS011;5671;47.936;8.716;2022-08-04T05:27:10;1.97;;;1.87;;
11228;SDS011;5671;47.936;8.716;2022-08-04T05:29:44;2.00;;;1.80;;
11228;SDS011;5671;47.936;8.716;2022-08-04T05:32:16;3.13;;;2.07;;
11228;SDS011;5671;47.936;8.716;2022-08-04T05:34:52;3.20;;;2.17;;
11228;SDS011;5671;47.936;8.716;2022-08-04T05:37:24;2.17;;;1.93;;
11228;SDS011;5671;47.936;8.716;2022-08-04T05:39:55;2.07;;;1.90;;
11228;SDS011;5671;47.936;8.716;2022-08-04T05:42:24;2.60;;;2.20;;
11228;SDS011;5671;47.936;8.716;2022-08-04T05:44:53;3.10;;;2.13;;
11228;SDS011;5671;47.936;8.716;2022-08-04T05:47:21;4.57;;;2.20;;
11228;SDS011;5671;47.936;8.716;2022-08-04T05:49:49;2.70;;;2.30;;
11228;SDS011;5671;47.936;8.716;2022-08-04T05:52:17;3.10;;;2.60;;
11228;SDS011;5671;47.936;8.716;2022-08-04T05:54:44;2.60;;;2.20;;
11228;SDS011;5671;47.936;8.716;2022-08-04T05:57:13;2.60;;;2.30;;
11228;SDS011;5671;47.936;8.716;2022-08-04T05:59:41;2.83;;;2.50;;
11228;SDS011;5671;47.936;8.716;2022-08-04T06:02:12;2.60;;;2.40;;
11228;SDS011;5671;47.936;8.716;2022-08-04T06:04:41;3.20;;;2.70;;
11228;SDS011;5671;47.936;8.716;2022-08-04T06:07:10;2.90;;;2.70;;
11228;SDS011;5671;47.936;8.716;2022-08-04T06:09:39;5.13;;;2.80;;
11228;SDS011;5671;47.936;8.716;2022-08-04T06:12:08;2.77;;;2.33;;
11228;SDS011;5671;47.936;8.716;2022-08-04T06:14:37;4.93;;;3.00;;
11228;SDS011;5671;47.936;8.716;2022-08-04T06:17:07;4.30;;;3.13;;
11228;SDS011;5671;47.936;8.716;2022-08-04T06:19:38;2.20;;;2.10;;
11228;SDS011;5671;47.936;8.716;2022-08-04T06:22:06;4.20;;;2.50;;
11228;SDS011;5671;47.936;8.716;2022-08-04T06:24:36;2.60;;;2.40;;
11228;SDS011;5671;47.936;8.716;2022-08-04T06:27:04;4.03;;;2.70;;
11228;SDS011;5671;47.936;8.716;2022-08-04T06:29:33;2.90;;;2.60;;
11228;SDS011;5671;47.936;8.716;2022-08-04T06:32:04;3.73;;;2.77;;
11228;SDS011;5671;47.936;8.716;2022-08-04T06:34:50;2.20;;;2.00;;
11228;SDS011;5671;47.936;8.716;2022-08-04T06:37:19;2.73;;;2.20;;
11228;SDS011;5671;47.936;8.716;2022-08-04T06:39:47;6.03;;;2.30;;
11228;SDS011;5671;47.936;8.716;2022-08-04T06:42:16;3.10;;;2.63;;
11228;SDS011;5671;47.936;8.716;2022-08-04T06:44:48;3.27;;;2.17;;
11228;SDS011;5671;47.936;8.716;2022-08-04T06:47:17;2.40;;;2.20;;
11228;SDS011;5671;47.936;8.716;2022-08-04T06:49:46;2.10;;;2.00;;
11228;SDS011;5671;47.936;8.716;2022-08-04T06:52:16;2.47;;;2.20;;
11228;SDS011;5671;47.936;8.716;2022-08-04T06:54:44;7.93;;;2.50;;
11228;SDS011;5671;47.936;8.716;2022-08-04T06:57:12;9.23;;;2.50;;
11228;SDS011;5671;47.936;8.716;2022-08-04T06:59:41;5.83;;;3.00;;
11228;SDS011;5671;47.936;8.716;2022-08-04T07:02:11;6.43;;;2.40;;
11228;SDS011;5671;47.936;8.716;2022-08-04T07:04:41;3.33;;;2.33;;
11228;SDS011;5671;47.936;8.716;2022-08-04T07:07:09;6.37;;;2.63;;
11228;SDS011;5671;47.936;8.716;2022-08-04T07:09:38;3.37;;;2.40;;
11228;SDS011;5671;47.936;8.716;2022-08-04T07:12:06;2.67;;;2.47;;
11228;SDS011;5671;47.936;8.716;2022-08-04T07:14:34;5.73;;;2.50;;
11228;SDS011;5671;47.936;8.716;2022-08-04T07:17:02;5.30;;;2.40;;
11228;SDS011;5671;47.936;8.716;2022-08-04T07:19:30;3.47;;;2.27;;
11228;SDS011;5671;47.936;8.716;2022-08-04T07:21:58;8.07;;;2.60;;
11228;SDS011;5671;47.936;8.716;2022-08-04T07:24:29;4.60;;;2.33;;
11228;SDS011;5671;47.936;8.716;2022-08-04T07:26:58;8.73;;;2.37;;
11228;SDS011;5671;47.936;8.716;2022-08-04T07:29:25;4.40;;;2.30;;
11228;SDS011;5671;47.936;8.716;2022-08-04T07:31:53;2.20;;;2.10;;
11228;SDS011;5671;47.936;8.716;2022-08-04T07:34:22;5.63;;;2.27;;
11228;SDS011;5671;47.936;8.716;2022-08-04T07:36:52;3.57;;;2.20;;
11228;SDS011;5671;47.936;8.716;2022-08-04T07:39:20;4.37;;;2.10;;
11228;SDS011;5671;47.936;8.716;2022-08-04T07:41:49;3.83;;;2.40;;
11228;SDS011;5671;47.936;8.716;2022-08-04T07:44:18;3.60;;;2.60;;
11228;SDS011;5671;47.936;8.716;2022-08-04T07:46:45;2.30;;;1.90;;
11228;SDS011;5671;47.936;8.716;2022-08-04T07:49:12;2.37;;;1.90;;
11228;SDS011;5671;47.936;8.716;2022-08-04T07:51:40;4.70;;;2.33;;
11228;SDS011;5671;47.936;8.716;2022-08-04T07:54:07;3.43;;;2.10;;
11228;SDS011;5671;47.936;8.716;2022-08-04T07:56:36;2.63;;;2.20;;
11228;SDS011;5671;47.936;8.716;2022-08-04T07:59:05;2.40;;;2.20;;
11228;SDS011;5671;47.936;8.716;2022-08-04T08:01:35;3.30;;;2.80;;
11228;SDS011;5671;47.936;8.716;2022-08-04T08:04:04;3.63;;;2.20;;
11228;SDS011;5671;47.936;8.716;2022-08-04T08:06:33;6.23;;;2.20;;
11228;SDS011;5671;47.936;8.716;2022-08-04T08:09:05;3.23;;;2.00;;
11228;SDS011;5671;47.936;8.716;2022-08-04T08:11:33;2.37;;;2.10;;
11228;SDS011;5671;47.936;8.716;2022-08-04T08:14:00;4.43;;;2.33;;
11228;SDS011;5671;47.936;8.716;2022-08-04T08:16:28;3.87;;;2.13;;
11228;SDS011;5671;47.936;8.716;2022-08-04T08:18:59;2.23;;;2.03;;
11228;SDS011;5671;47.936;8.716;2022-08-04T08:21:27;6.30;;;2.70;;
11228;SDS011;5671;47.936;8.716;2022-08-04T08:23:54;2.47;;;2.27;;
11228;SDS011;5671;47.936;8.716;2022-08-04T08:26:22;3.13;;;2.20;;
11228;SDS011;5671;47.936;8.716;2022-08-04T08:28:49;5.43;;;2.30;;
11228;SDS011;5671;47.936;8.716;2022-08-04T08:31:16;3.23;;;2.23;;
11228;SDS011;5671;47.936;8.716;2022-08-04T08:33:43;2.47;;;2.23;;
11228;SDS011;5671;47.936;8.716;2022-08-04T08:36:15;3.73;;;2.30;;
11228;SDS011;5671;47.936;8.716;2022-08-04T08:38:49;2.53;;;2.20;;
11228;SDS011;5671;47.936;8.716;2022-08-04T08:44:37;6.97;;;2.57;;
11228;SDS011;5671;47.936;8.716;2022-08-04T08:47:47;3.73;;;2.33;;
11228;SDS011;5671;47.936;8.716;2022-08-04T08:50:35;4.40;;;2.33;;
11228;SDS011;5671;47.936;8.716;2022-08-04T08:53:29;2.40;;;2.20;;
11228;SDS011;5671;47.936;8.716;2022-08-04T08:56:12;5.10;;;2.37;;
11228;SDS011;5671;47.936;8.716;2022-08-04T08:58:57;6.57;;;2.30;;
11228;SDS011;5671;47.936;8.716;2022-08-04T09:01:41;3.73;;;2.33;;
11228;SDS011;5671;47.936;8.716;2022-08-04T09:04:26;2.50;;;2.30;;
11228;SDS011;5671;47.936;8.716;2022-08-04T09:07:22;2.67;;;2.30;;
11228;SDS011;5671;47.936;8.716;2022-08-04T09:10:09;2.40;;;2.20;;
11228;SDS011;5671;47.936;8.716;2022-08-04T09:12:45;3.17;;;1.90;;
11228;SDS011;5671;47.936;8.716;2022-08-04T09:15:21;2.60;;;2.00;;
11228;SDS011;5671;47.936;8.716;2022-08-04T09:17:56;3.47;;;2.33;;
11228;SDS011;5671;47.936;8.716;2022-08-04T09:20:28;7.13;;;2.20;;
11228;SDS011;5671;47.936;8.716;2022-08-04T09:23:03;10.03;;;2.50;;
11228;SDS011;5671;47.936;8.716;2022-08-04T09:25:39;2.63;;;2.03;;
11228;SDS011;5671;47.936;8.716;2022-08-04T09:28:19;2.00;;;1.90;;
11228;SDS011;5671;47.936;8.716;2022-08-04T09:30:51;6.60;;;2.33;;
11228;SDS011;5671;47.936;8.716;2022-08-04T09:33:24;4.43;;;2.10;;
11228;SDS011;5671;47.936;8.716;2022-08-04T09:36:00;3.67;;;2.40;;
11228;SDS011;5671;47.936;8.716;2022-08-04T09:38:34;4.27;;;2.63;;
11228;SDS011;5671;47.936;8.716;2022-08-04T09:41:22;4.17;;;2.30;;
11228;SDS011;5671;47.936;8.716;2022-08-04T09:43:57;3.17;;;2.10;;
11228;SDS011;5671;47.936;8.716;2022-08-04T09:46:34;4.83;;;2.40;;
11228;SDS011;5671;47.936;8.716;2022-08-04T09:49:08;3.40;;;2.30;;
11228;SDS011;5671;47.936;8.716;2022-08-04T09:51:47;3.07;;;2.10;;
11228;SDS011;5671;47.936;8.716;2022-08-04T09:54:23;4.43;;;2.20;;
11228;SDS011;5671;47.936;8.716;2022-08-04T09:57:03;4.70;;;2.30;;
11228;SDS011;5671;47.936;8.716;2022-08-04T09:59:43;6.97;;;2.70;;
11228;SDS011;5671;47.936;8.716;2022-08-04T10:02:22;8.43;;;2.00;;
11228;SDS011;5671;47.936;8.716;2022-08-04T10:04:52;2.77;;;2.47;;
11228;SDS011;5671;47.936;8.716;2022-08-04T10:10:17;3.23;;;2.60;;
11228;SDS011;5671;47.936;8.716;2022-08-04T10:15:50;8.90;;;2.43;;
11228;SDS011;5671;47.936;8.716;2022-08-04T10:18:37;4.73;;;2.20;;
11228;SDS011;5671;47.936;8.716;2022-08-04T10:21:12;2.10;;;1.90;;
11228;SDS011;5671;47.936;8.716;2022-08-04T10:26:57;2.03;;;1.90;;
11228;SDS011;5671;47.936;8.716;2022-08-04T10:29:30;2.30;;;2.10;;
11228;SDS011;5671;47.936;8.716;2022-08-04T10:32:05;2.33;;;2.10;;
11228;SDS011;5671;47.936;8.716;2022-08-04T10:34:35;3.67;;;2.07;;
11228;SDS011;5671;47.936;8.716;2022-08-04T10:37:17;6.07;;;2.08;;
11228;SDS011;5671;47.936;8.716;2022-08-04T10:39:45;2.38;;;1.88;;
11228;SDS011;5671;47.936;8.716;2022-08-04T10:42:34;2.03;;;1.75;;
11228;SDS011;5671;47.936;8.716;2022-08-04T10:45:11;2.28;;;1.90;;
11228;SDS011;5671;47.936;8.716;2022-08-04T10:47:42;3.40;;;2.10;;
11228;SDS011;5671;47.936;8.716;2022-08-04T10:50:18;6.85;;;2.50;;
11228;SDS011;5671;47.936;8.716;2022-08-04T10:52:47;2.13;;;1.90;;
11228;SDS011;5671;47.936;8.716;2022-08-04T10:55:26;8.98;;;2.20;;
11228;SDS011;5671;47.936;8.716;2022-08-04T10:57:58;3.47;;;1.80;;
11228;SDS011;5671;47.936;8.716;2022-08-04T11:00:31;4.53;;;1.90;;
11228;SDS011;5671;47.936;8.716;2022-08-04T11:03:04;2.00;;;1.90;;
11228;SDS011;5671;47.936;8.716;2022-08-04T11:05:35;5.28;;;1.98;;
11228;SDS011;5671;47.936;8.716;2022-08-04T11:08:08;3.05;;;1.63;;
11228;SDS011;5671;47.936;8.716;2022-08-04T11:10:39;9.00;;;1.63;;
11228;SDS011;5671;47.936;8.716;2022-08-04T11:13:12;2.92;;;1.50;;
11228;SDS011;5671;47.936;8.716;2022-08-04T11:15:45;1.63;;;1.50;;
11228;SDS011;5671;47.936;8.716;2022-08-04T11:18:19;2.25;;;1.70;;
11228;SDS011;5671;47.936;8.716;2022-08-04T11:20:54;6.53;;;1.90;;
11228;SDS011;5671;47.936;8.716;2022-08-04T11:23:27;2.05;;;1.75;;
11228;SDS011;5671;47.936;8.716;2022-08-04T11:26:01;2.65;;;1.80;;
11228;SDS011;5671;47.936;8.716;2022-08-04T11:28:37;3.85;;;1.65;;
11228;SDS011;5671;47.936;8.716;2022-08-04T11:31:14;2.35;;;1.60;;
11228;SDS011;5671;47.936;8.716;2022-08-04T11:33:49;2.53;;;1.30;;
11228;SDS011;5671;47.936;8.716;2022-08-04T11:36:31;1.67;;;1.58;;
11228;SDS011;5671;47.936;8.716;2022-08-04T11:39:05;1.88;;;1.70;;
11228;SDS011;5671;47.936;8.716;2022-08-04T11:41:38;1.70;;;1.60;;
11228;SDS011;5671;47.936;8.716;2022-08-04T11:44:17;3.72;;;1.58;;
11228;SDS011;5671;47.936;8.716;2022-08-04T11:46:53;3.72;;;1.80;;
11228;SDS011;5671;47.936;8.716;2022-08-04T11:49:36;1.80;;;1.50;;
11228;SDS011;5671;47.936;8.716;2022-08-04T11:52:07;4.80;;;1.92;;
11228;SDS011;5671;47.936;8.716;2022-08-04T11:54:37;3.28;;;1.73;;
11228;SDS011;5671;47.936;8.716;2022-08-04T11:57:05;2.00;;;1.70;;
11228;SDS011;5671;47.936;8.716;2022-08-04T11:59:35;2.03;;;1.92;;
11228;SDS011;5671;47.936;8.716;2022-08-04T12:02:18;6.57;;;1.73;;
11228;SDS011;5671;47.936;8.716;2022-08-04T12:05:13;6.55;;;2.00;;
11228;SDS011;5671;47.936;8.716;2022-08-04T12:07:48;1.80;;;1.70;;
11228;SDS011;5671;47.936;8.716;2022-08-04T12:10:23;1.88;;;1.77;;
11228;SDS011;5671;47.936;8.716;2022-08-04T12:12:58;2.97;;;1.88;;
11228;SDS011;5671;47.936;8.716;2022-08-04T12:15:35;3.95;;;1.60;;
11228;SDS011;5671;47.936;8.716;2022-08-04T12:18:18;1.98;;;1.60;;
11228;SDS011;5671;47.936;8.716;2022-08-04T12:20:54;2.15;;;1.60;;
11228;SDS011;5671;47.936;8.716;2022-08-04T12:23:25;3.38;;;1.77;;
11228;SDS011;5671;47.936;8.716;2022-08-04T12:25:58;2.03;;;1.52;;
11228;SDS011;5671;47.936;8.716;2022-08-04T12:28:30;1.73;;;1.48;;
11228;SDS011;5671;47.936;8.716;2022-08-04T12:31:01;1.90;;;1.55;;
11228;SDS011;5671;47.936;8.716;2022-08-04T12:33:41;2.30;;;1.50;;
11228;SDS011;5671;47.936;8.716;2022-08-04T12:36:16;1.33;;;1.20;;
11228;SDS011;5671;47.936;8.716;2022-08-04T12:38:48;2.38;;;1.65;;
11228;SDS011;5671;47.936;8.716;2022-08-04T12:41:22;5.10;;;1.20;;
11228;SDS011;5671;47.936;8.716;2022-08-04T12:43:51;1.55;;;1.17;;
11228;SDS011;5671;47.936;8.716;2022-08-04T12:46:20;1.40;;;1.30;;
11228;SDS011;5671;47.936;8.716;2022-08-04T12:48:50;1.77;;;1.20;;
11228;SDS011;5671;47.936;8.716;2022-08-04T12:51:20;1.85;;;1.17;;
11228;SDS011;5671;47.936;8.716;2022-08-04T12:53:51;1.80;;;1.00;;
11228;SDS011;5671;47.936;8.716;2022-08-04T12:56:22;4.32;;;1.23;;
11228;SDS011;5671;47.936;8.716;2022-08-04T12:58:54;1.40;;;1.27;;
11228;SDS011;5671;47.936;8.716;2022-08-04T13:01:27;1.30;;;1.20;;
11228;SDS011;5671;47.936;8.716;2022-08-04T13:03:58;1.65;;;1.05;;
11228;SDS011;5671;47.936;8.716;2022-08-04T13:06:28;1.63;;;1.30;;
11228;SDS011;5671;47.936;8.716;2022-08-04T13:09:02;1.20;;;1.17;;
11228;SDS011;5671;47.936;8.716;2022-08-04T13:11:33;1.20;;;1.17;;
11228;SDS011;5671;47.936;8.716;2022-08-04T13:14:04;1.40;;;1.25;;
11228;SDS011;5671;47.936;8.716;2022-08-04T13:16:33;1.73;;;1.30;;
11228;SDS011;5671;47.936;8.716;2022-08-04T13:19:01;1.95;;;1.20;;
11228;SDS011;5671;47.936;8.716;2022-08-04T13:21:33;1.30;;;1.20;;
11228;SDS011;5671;47.936;8.716;2022-08-04T13:24:06;1.65;;;1.25;;
11228;SDS011;5671;47.936;8.716;2022-08-04T13:26:37;1.45;;;1.30;;
11228;SDS011;5671;47.936;8.716;2022-08-04T13:29:18;2.33;;;1.30;;
11228;SDS011;5671;47.936;8.716;2022-08-04T13:31:46;1.83;;;1.40;;
11228;SDS011;5671;47.936;8.716;2022-08-04T13:34:15;1.73;;;1.63;;
11228;SDS011;5671;47.936;8.716;2022-08-04T13:36:43;1.77;;;1.50;;
11228;SDS011;5671;47.936;8.716;2022-08-04T13:39:13;1.40;;;1.30;;
11228;SDS011;5671;47.936;8.716;2022-08-04T13:41:44;2.42;;;1.38;;
11228;SDS011;5671;47.936;8.716;2022-08-04T13:44:17;1.05;;;1.05;;
11228;SDS011;5671;47.936;8.716;2022-08-04T13:46:46;3.35;;;1.50;;
11228;SDS011;5671;47.936;8.716;2022-08-04T13:49:17;1.83;;;1.15;;
11228;SDS011;5671;47.936;8.716;2022-08-04T13:51:51;3.17;;;1.40;;
11228;SDS011;5671;47.936;8.716;2022-08-04T13:54:21;3.45;;;1.25;;
11228;SDS011;5671;47.936;8.716;2022-08-04T13:56:50;2.15;;;1.30;;
11228;SDS011;5671;47.936;8.716;2022-08-04T13:59:26;2.72;;;1.30;;
11228;SDS011;5671;47.936;8.716;2022-08-04T14:02:02;3.92;;;1.10;;
11228;SDS011;5671;47.936;8.716;2022-08-04T14:04:33;2.38;;;1.27;;
11228;SDS011;5671;47.936;8.716;2022-08-04T14:07:05;3.60;;;1.48;;
11228;SDS011;5671;47.936;8.716;2022-08-04T14:09:38;4.75;;;1.27;;
11228;SDS011;5671;47.936;8.716;2022-08-04T14:12:06;1.95;;;1.30;;
11228;SDS011;5671;47.936;8.716;2022-08-04T14:14:35;1.73;;;1.50;;
11228;SDS011;5671;47.936;8.716;2022-08-04T14:17:10;2.47;;;1.38;;
11228;SDS011;5671;47.936;8.716;2022-08-04T14:19:50;1.10;;;1.00;;
11228;SDS011;5671;47.936;8.716;2022-08-04T14:22:32;1.30;;;1.20;;
11228;SDS011;5671;47.936;8.716;2022-08-04T14:25:02;1.80;;;1.30;;
11228;SDS011;5671;47.936;8.716;2022-08-04T14:27:42;2.10;;;1.13;;
11228;SDS011;5671;47.936;8.716;2022-08-04T14:30:20;5.43;;;1.20;;
11228;SDS011;5671;47.936;8.716;2022-08-04T14:32:56;1.40;;;1.30;;
11228;SDS011;5671;47.936;8.716;2022-08-04T14:35:26;2.25;;;1.15;;
11228;SDS011;5671;47.936;8.716;2022-08-04T14:37:53;2.45;;;1.20;;
11228;SDS011;5671;47.936;8.716;2022-08-04T14:40:23;1.20;;;1.10;;
11228;SDS011;5671;47.936;8.716;2022-08-04T14:42:51;7.05;;;1.40;;
11228;SDS011;5671;47.936;8.716;2022-08-04T14:45:31;2.67;;;1.10;;
11228;SDS011;5671;47.936;8.716;2022-08-04T14:48:02;3.42;;;1.10;;
11228;SDS011;5671;47.936;8.716;2022-08-04T14:50:35;2.45;;;1.20;;
11228;SDS011;5671;47.936;8.716;2022-08-04T14:53:04;4.82;;;1.20;;
11228;SDS011;5671;47.936;8.716;2022-08-04T14:55:33;2.45;;;1.30;;
11228;SDS011;5671;47.936;8.716;2022-08-04T14:58:02;3.72;;;1.30;;
11228;SDS011;5671;47.936;8.716;2022-08-04T15:00:30;2.28;;;1.10;;
11228;SDS011;5671;47.936;8.716;2022-08-04T15:03:01;1.30;;;1.20;;
11228;SDS011;5671;47.936;8.716;2022-08-04T15:05:38;2.70;;;1.10;;
11228;SDS011;5671;47.936;8.716;2022-08-04T15:08:06;2.20;;;1.27;;
11228;SDS011;5671;47.936;8.716;2022-08-04T15:10:34;2.47;;;1.20;;
11228;SDS011;5671;47.936;8.716;2022-08-04T15:13:03;5.07;;;1.48;;
11228;SDS011;5671;47.936;8.716;2022-08-04T15:15:30;2.30;;;1.13;;
11228;SDS011;5671;47.936;8.716;2022-08-04T15:17:58;0.90;;;0.90;;
11228;SDS011;5671;47.936;8.716;2022-08-04T15:20:37;2.47;;;1.30;;
11228;SDS011;5671;47.936;8.716;2022-08-04T15:23:06;1.67;;;1.10;;
11228;SDS011;5671;47.936;8.716;2022-08-04T15:25:34;3.03;;;1.08;;
11228;SDS011;5671;47.936;8.716;2022-08-04T15:28:04;1.45;;;0.90;;
11228;SDS011;5671;47.936;8.716;2022-08-04T15:30:33;1.17;;;0.95;;
11228;SDS011;5671;47.936;8.716;2022-08-04T15:33:00;0.90;;;0.90;;
11228;SDS011;5671;47.936;8.716;2022-08-04T15:35:28;5.18;;;1.13;;
11228;SDS011;5671;47.936;8.716;2022-08-04T15:38:01;2.28;;;1.10;;
11228;SDS011;5671;47.936;8.716;2022-08-04T15:40:34;2.40;;;1.00;;
11228;SDS011;5671;47.936;8.716;2022-08-04T15:43:13;2.22;;;1.08;;
11228;SDS011;5671;47.936;8.716;2022-08-04T15:45:54;1.83;;;1.02;;
11228;SDS011;5671;47.936;8.716;2022-08-04T15:48:32;2.65;;;1.10;;
11228;SDS011;5671;47.936;8.716;2022-08-04T15:51:01;0.85;;;0.85;;
11228;SDS011;5671;47.936;8.716;2022-08-04T15:56:43;0.98;;;0.95;;
11228;SDS011;5671;47.936;8.716;2022-08-04T15:59:11;1.02;;;0.90;;
11228;SDS011;5671;47.936;8.716;2022-08-04T16:01:39;2.40;;;1.00;;
11228;SDS011;5671;47.936;8.716;2022-08-04T16:04:22;2.13;;;1.02;;
11228;SDS011;5671;47.936;8.716;2022-08-04T16:06:50;0.88;;;0.88;;
11228;SDS011;5671;47.936;8.716;2022-08-04T16:09:30;1.13;;;1.08;;
11228;SDS011;5671;47.936;8.716;2022-08-04T16:11:59;1.27;;;1.10;;
11228;SDS011;5671;47.936;8.716;2022-08-04T16:14:30;0.82;;;0.82;;
11228;SDS011;5671;47.936;8.716;2022-08-04T16:17:13;3.83;;;1.00;;
11228;SDS011;5671;47.936;8.716;2022-08-04T16:19:45;1.98;;;0.82;;
11228;SDS011;5671;47.936;8.716;2022-08-04T16:22:30;0.70;;;0.70;;
11228;SDS011;5671;47.936;8.716;2022-08-04T16:24:58;2.50;;;0.90;;
11228;SDS011;5671;47.936;8.716;2022-08-04T16:27:38;2.55;;;0.70;;
11228;SDS011;5671;47.936;8.716;2022-08-04T16:30:07;1.08;;;0.90;;
11228;SDS011;5671;47.936;8.716;2022-08-04T16:32:40;2.42;;;1.08;;
11228;SDS011;5671;47.936;8.716;2022-08-04T16:35:23;1.23;;;1.00;;